sensor_id;sensor_type;location;lat;lon;timestamp;pressure;altitude;pressure_sealevel;temperature;humidity
77639;BME280;66802;52.574;14.398;2023-11-19T00:00:28;101800.56;;;3.13;98.57
77639;BME280;66802;52.574;14.398;2023-11-19T00:02:54;101788.25;;;3.10;98.98
77639;BME280;66802;52.574;14.398;2023-11-19T00:05:20;101788.09;;;3.13;99.03
77639;BME280;66802;52.574;14.398;2023-11-19T00:07:45;101790.91;;;3.10;99.51
77639;BME280;66802;52.574;14.398;2023-11-19T00:10:13;101773.63;;;3.17;98.78
77639;BME280;66802;52.574;14.398;2023-11-19T00:12:44;101776.06;;;3.22;98.80
77639;BME280;66802;52.574;14.398;2023-11-19T00:15:11;101766.19;;;3.24;98.41
77639;BME280;66802;52.574;14.398;2023-11-19T00:17:40;101764.19;;;3.27;97.60
77639;BME280;66802;52.574;14.398;2023-11-19T00:20:19;101765.47;;;3.20;98.40
77639;BME280;66802;52.574;14.398;2023-11-19T00:22:47;101760.84;;;3.24;98.22
77639;BME280;66802;52.574;14.398;2023-11-19T00:25:19;101741.38;;;3.22;98.70
77639;BME280;66802;52.574;14.398;2023-11-19T00:27:45;101722.19;;;3.31;97.55
77639;BME280;66802;52.574;14.398;2023-11-19T00:30:11;101710.16;;;3.40;96.54
77639;BME280;66802;52.574;14.398;2023-11-19T00:32:36;101699.91;;;3.32;96.25
77639;BME280;66802;52.574;14.398;2023-11-19T00:35:04;101678.28;;;3.21;96.87
77639;BME280;66802;52.574;14.398;2023-11-19T00:37:30;101696.81;;;3.24;97.16
77639;BME280;66802;52.574;14.398;2023-11-19T00:39:55;101695.50;;;3.31;96.43
77639;BME280;66802;52.574;14.398;2023-11-19T00:42:24;101685.28;;;3.23;96.96
77639;BME280;66802;52.574;14.398;2023-11-19T00:44:50;101696.53;;;3.28;97.01
77639;BME280;66802;52.574;14.398;2023-11-19T00:47:16;101689.16;;;3.34;95.86
77639;BME280;66802;52.574;14.398;2023-11-19T00:49:46;101683.91;;;3.32;96.05
77639;BME280;66802;52.574;14.398;2023-11-19T00:52:14;101689.38;;;3.29;95.67
77639;BME280;66802;52.574;14.398;2023-11-19T00:54:39;101690.97;;;3.33;95.58
77639;BME280;66802;52.574;14.398;2023-11-19T00:57:05;101691.28;;;3.27;95.74
77639;BME280;66802;52.574;14.398;2023-11-19T00:59:31;101663.56;;;3.29;95.73
77639;BME280;66802;52.574;14.398;2023-11-19T04:01:14;101235.34;;;3.37;90.19
77639;BME280;66802;52.574;14.398;2023-11-19T04:03:40;101218.97;;;3.43;89.57
77639;BME280;66802;52.574;14.398;2023-11-19T04:06:05;101209.31;;;3.40;90.25
77639;BME280;66802;52.574;14.398;2023-11-19T04:08:31;101216.38;;;3.41;90.32
77639;BME280;66802;52.574;14.398;2023-11-19T04:10:57;101209.72;;;3.34;90.89
77639;BME280;66802;52.574;14.398;2023-11-19T04:13:22;101204.38;;;3.34;91.00
77639;BME280;66802;52.574;14.398;2023-11-19T04:15:50;101204.19;;;3.37;90.72
77639;BME280;66802;52.574;14.398;2023-11-19T04:18:16;101204.19;;;3.37;90.61
77639;BME280;66802;52.574;14.398;2023-11-19T04:20:41;101192.56;;;3.38;91.23
77639;BME280;66802;52.574;14.398;2023-11-19T04:23:10;101182.47;;;3.43;90.94
77639;BME280;66802;52.574;14.398;2023-11-19T04:25:36;101170.81;;;3.44;91.49
77639;BME280;66802;52.574;14.398;2023-11-19T04:28:02;101169.22;;;3.42;92.08
77639;BME280;66802;52.574;14.398;2023-11-19T04:30:28;101164.91;;;3.39;91.84
77639;BME280;66802;52.574;14.398;2023-11-19T04:32:54;101154.06;;;3.42;91.96
77639;BME280;66802;52.574;14.398;2023-11-19T04:35:19;101150.44;;;3.43;91.98
77639;BME280;66802;52.574;14.398;2023-11-19T04:37:45;101128.59;;;3.37;92.90
77639;BME280;66802;52.574;14.398;2023-11-19T04:40:11;101120.72;;;3.35;92.80
77639;BME280;66802;52.574;14.398;2023-11-19T04:42:38;101115.50;;;3.34;93.98
77639;BME280;66802;52.574;14.398;2023-11-19T04:45:06;101110.06;;;3.35;93.66
77639;BME280;66802;52.574;14.398;2023-11-19T04:47:38;101095.09;;;3.33;94.72
77639;BME280;66802;52.574;14.398;2023-11-19T04:50:04;101089.84;;;3.31;94.56
77639;BME280;66802;52.574;14.398;2023-11-19T04:52:30;101079.78;;;3.22;94.92
77639;BME280;66802;52.574;14.398;2023-11-19T04:54:55;101069.97;;;3.22;95.16
77639;BME280;66802;52.574;14.398;2023-11-19T04:57:21;101062.16;;;3.19;96.21
77639;BME280;66802;52.574;14.398;2023-11-19T04:59:46;101060.59;;;3.29;95.44
77639;BME280;66802;52.574;14.398;2023-11-19T05:02:12;101053.47;;;3.30;95.73
77639;BME280;66802;52.574;14.398;2023-11-19T05:04:42;101046.59;;;3.26;96.52
77639;BME280;66802;52.574;14.398;2023-11-19T05:07:09;101031.25;;;3.29;95.98
77639;BME280;66802;52.574;14.398;2023-11-19T05:09:35;101034.03;;;3.28;96.23
77639;BME280;66802;52.574;14.398;2023-11-19T05:12:00;101017.25;;;3.26;96.04
77639;BME280;66802;52.574;14.398;2023-11-19T05:14:28;101027.06;;;3.25;96.87
77639;BME280;66802;52.574;14.398;2023-11-19T05:16:53;101010.34;;;3.23;96.67
77639;BME280;66802;52.574;14.398;2023-11-19T05:19:19;101016.31;;;3.27;96.84
77639;BME280;66802;52.574;14.398;2023-11-19T05:21:45;101010.09;;;3.26;97.80
77639;BME280;66802;52.574;14.398;2023-11-19T05:24:11;101001.38;;;3.24;97.33
77639;BME280;66802;52.574;14.398;2023-11-19T05:26:39;101005.53;;;3.28;97.05
77639;BME280;66802;52.574;14.398;2023-11-19T05:29:05;100994.66;;;3.32;97.35
77639;BME280;66802;52.574;14.398;2023-11-19T05:31:31;100991.25;;;3.29;97.59
77639;BME280;66802;52.574;14.398;2023-11-19T05:33:56;100994.00;;;3.28;97.68
77639;BME280;66802;52.574;14.398;2023-11-19T05:36:22;100988.66;;;3.28;97.80
77639;BME280;66802;52.574;14.398;2023-11-19T05:38:47;100979.91;;;3.26;98.18
77639;BME280;66802;52.574;14.398;2023-11-19T05:41:13;100977.38;;;3.24;98.62
77639;BME280;66802;52.574;14.398;2023-11-19T05:43:39;100973.94;;;3.22;99.35
77639;BME280;66802;52.574;14.398;2023-11-19T05:46:06;100972.75;;;3.26;99.17
77639;BME280;66802;52.574;14.398;2023-11-19T05:48:32;100985.38;;;3.37;98.59
77639;BME280;66802;52.574;14.398;2023-11-19T05:50:58;100972.16;;;3.36;98.86
77639;BME280;66802;52.574;14.398;2023-11-19T05:53:24;100961.38;;;3.37;98.33
77639;BME280;66802;52.574;14.398;2023-11-19T05:55:50;100959.13;;;3.31;99.15
77639;BME280;66802;52.574;14.398;2023-11-19T05:58:27;100960.19;;;3.28;100.00
77639;BME280;66802;52.574;14.398;2023-11-19T06:00:57;100954.84;;;3.28;100.00
77639;BME280;66802;52.574;14.398;2023-11-19T06:03:23;100948.56;;;3.29;100.00
77639;BME280;66802;52.574;14.398;2023-11-19T06:05:49;100942.06;;;3.34;100.00
77639;BME280;66802;52.574;14.398;2023-11-19T06:08:15;100940.03;;;3.37;100.00
77639;BME280;66802;52.574;14.398;2023-11-19T06:10:43;100932.13;;;3.36;100.00
77639;BME280;66802;52.574;14.398;2023-11-19T06:13:09;100931.16;;;3.37;100.00
77639;BME280;66802;52.574;14.398;2023-11-19T06:15:36;100923.91;;;3.39;100.00
77639;BME280;66802;52.574;14.398;2023-11-19T06:18:02;100919.78;;;3.35;100.00
77639;BME280;66802;52.574;14.398;2023-11-19T06:20:31;100921.59;;;3.34;100.00
77639;BME280;66802;52.574;14.398;2023-11-19T06:22:57;100925.97;;;3.35;100.00
77639;BME280;66802;52.574;14.398;2023-11-19T06:25:23;100924.13;;;3.36;100.00
77639;BME280;66802;52.574;14.398;2023-11-19T06:27:52;100922.53;;;3.33;100.00
77639;BME280;66802;52.574;14.398;2023-11-19T06:30:18;100915.06;;;3.38;100.00
77639;BME280;66802;52.574;14.398;2023-11-19T06:32:43;100907.06;;;3.38;100.00
77639;BME280;66802;52.574;14.398;2023-11-19T06:35:09;100907.16;;;3.37;100.00
77639;BME280;66802;52.574;14.398;2023-11-19T06:37:41;100905.91;;;3.42;100.00
77639;BME280;66802;52.574;14.398;2023-11-19T06:40:07;100891.59;;;3.43;100.00
77639;BME280;66802;52.574;14.398;2023-11-19T06:42:35;100883.16;;;3.37;100.00
77639;BME280;66802;52.574;14.398;2023-11-19T06:45:02;100883.47;;;3.32;100.00
77639;BME280;66802;52.574;14.398;2023-11-19T06:47:28;100881.56;;;3.34;100.00
77639;BME280;66802;52.574;14.398;2023-11-19T06:49:54;100883.28;;;3.35;100.00
77639;BME280;66802;52.574;14.398;2023-11-19T06:52:20;100877.19;;;3.33;100.00
77639;BME280;66802;52.574;14.398;2023-11-19T06:54:46;100883.56;;;3.30;100.00
77639;BME280;66802;52.574;14.398;2023-11-19T06:57:12;100866.28;;;3.36;100.00
77639;BME280;66802;52.574;14.398;2023-11-19T06:59:38;100865.97;;;3.41;100.00
77639;BME280;66802;52.574;14.398;2023-11-19T07:02:05;100858.50;;;3.33;100.00
77639;BME280;66802;52.574;14.398;2023-11-19T07:04:31;100866.19;;;3.38;100.00
77639;BME280;66802;52.574;14.398;2023-11-19T07:06:57;100863.31;;;3.41;100.00
77639;BME280;66802;52.574;14.398;2023-11-19T07:09:22;100855.28;;;3.28;100.00
77639;BME280;66802;52.574;14.398;2023-11-19T07:11:48;100853.69;;;3.38;100.00
77639;BME280;66802;52.574;14.398;2023-11-19T07:14:17;100829.59;;;3.40;100.00
77639;BME280;66802;52.574;14.398;2023-11-19T07:16:44;100836.84;;;3.38;100.00
77639;BME280;66802;52.574;14.398;2023-11-19T07:19:10;100830.22;;;3.43;100.00
77639;BME280;66802;52.574;14.398;2023-11-19T07:21:37;100821.28;;;3.44;100.00
77639;BME280;66802;52.574;14.398;2023-11-19T07:24:11;100815.72;;;3.35;100.00
77639;BME280;66802;52.574;14.398;2023-11-19T07:26:44;100794.78;;;3.41;100.00
77639;BME280;66802;52.574;14.398;2023-11-19T07:29:10;100788.59;;;3.41;100.00
77639;BME280;66802;52.574;14.398;2023-11-19T07:31:36;100803.09;;;3.49;100.00
77639;BME280;66802;52.574;14.398;2023-11-19T07:34:02;100799.94;;;3.44;100.00
77639;BME280;66802;52.574;14.398;2023-11-19T07:36:28;100794.59;;;3.44;100.00
77639;BME280;66802;52.574;14.398;2023-11-19T07:38:54;100795.97;;;3.37;100.00
77639;BME280;66802;52.574;14.398;2023-11-19T07:41:23;100784.56;;;3.35;100.00
77639;BME280;66802;52.574;14.398;2023-11-19T07:43:50;100789.47;;;3.41;100.00
77639;BME280;66802;52.574;14.398;2023-11-19T07:46:17;100783.25;;;3.41;100.00
77639;BME280;66802;52.574;14.398;2023-11-19T07:48:45;100791.91;;;3.44;100.00
77639;BME280;66802;52.574;14.398;2023-11-19T07:51:13;100788.28;;;3.45;100.00
77639;BME280;66802;52.574;14.398;2023-11-19T07:53:39;100793.28;;;3.50;100.00
77639;BME280;66802;52.574;14.398;2023-11-19T07:56:07;100796.59;;;3.53;100.00
77639;BME280;66802;52.574;14.398;2023-11-19T07:58:33;100789.97;;;3.59;100.00
77639;BME280;66802;52.574;14.398;2023-11-19T08:00:58;100789.34;;;3.55;100.00
77639;BME280;66802;52.574;14.398;2023-11-19T08:03:24;100785.19;;;3.51;100.00
77639;BME280;66802;52.574;14.398;2023-11-19T08:05:50;100780.25;;;3.58;100.00
77639;BME280;66802;52.574;14.398;2023-11-19T08:08:17;100783.25;;;3.53;100.00
77639;BME280;66802;52.574;14.398;2023-11-19T08:10:43;100779.41;;;3.57;100.00
77639;BME280;66802;52.574;14.398;2023-11-19T08:13:11;100778.69;;;3.55;100.00
77639;BME280;66802;52.574;14.398;2023-11-19T08:15:37;100779.94;;;3.50;100.00
77639;BME280;66802;52.574;14.398;2023-11-19T08:18:05;100765.34;;;3.55;100.00
77639;BME280;66802;52.574;14.398;2023-11-19T08:20:32;100754.00;;;3.64;100.00
77639;BME280;66802;52.574;14.398;2023-11-19T08:22:59;100753.25;;;3.62;100.00
77639;BME280;66802;52.574;14.398;2023-11-19T08:25:24;100767.84;;;3.70;100.00
77639;BME280;66802;52.574;14.398;2023-11-19T08:27:50;100756.66;;;3.64;100.00
77639;BME280;66802;52.574;14.398;2023-11-19T08:30:16;100760.50;;;3.60;100.00
77639;BME280;66802;52.574;14.398;2023-11-19T08:32:41;100756.03;;;3.61;100.00
77639;BME280;66802;52.574;14.398;2023-11-19T08:35:07;100747.06;;;3.62;100.00
77639;BME280;66802;52.574;14.398;2023-11-19T08:37:34;100740.53;;;3.66;100.00
77639;BME280;66802;52.574;14.398;2023-11-19T08:40:02;100728.91;;;3.67;100.00
77639;BME280;66802;52.574;14.398;2023-11-19T08:42:30;100733.38;;;3.66;100.00
77639;BME280;66802;52.574;14.398;2023-11-19T08:44:56;100739.88;;;3.75;100.00
77639;BME280;66802;52.574;14.398;2023-11-19T08:47:22;100736.84;;;3.80;100.00
77639;BME280;66802;52.574;14.398;2023-11-19T08:49:51;100750.84;;;3.83;100.00
77639;BME280;66802;52.574;14.398;2023-11-19T08:52:17;100751.06;;;3.80;100.00
77639;BME280;66802;52.574;14.398;2023-11-19T08:54:43;100736.84;;;3.80;100.00
77639;BME280;66802;52.574;14.398;2023-11-19T08:57:09;100740.06;;;3.85;100.00
77639;BME280;66802;52.574;14.398;2023-11-19T08:59:35;100738.13;;;3.87;100.00
77639;BME280;66802;52.574;14.398;2023-11-19T09:02:00;100743.88;;;3.93;100.00
77639;BME280;66802;52.574;14.398;2023-11-19T09:04:27;100739.59;;;3.91;100.00
77639;BME280;66802;52.574;14.398;2023-11-19T09:06:53;100738.31;;;3.96;100.00
77639;BME280;66802;52.574;14.398;2023-11-19T09:09:18;100733.47;;;4.01;100.00
77639;BME280;66802;52.574;14.398;2023-11-19T09:11:44;100722.13;;;4.11;100.00
77639;BME280;66802;52.574;14.398;2023-11-19T09:14:09;100722.34;;;4.08;100.00
77639;BME280;66802;52.574;14.398;2023-11-19T09:16:35;100720.81;;;4.16;100.00
77639;BME280;66802;52.574;14.398;2023-11-19T09:19:00;100714.19;;;4.22;100.00
77639;BME280;66802;52.574;14.398;2023-11-19T09:21:27;100714.72;;;4.14;100.00
77639;BME280;66802;52.574;14.398;2023-11-19T09:23:55;100706.59;;;4.16;100.00
77639;BME280;66802;52.574;14.398;2023-11-19T09:26:20;100705.53;;;4.18;100.00
77639;BME280;66802;52.574;14.398;2023-11-19T09:28:46;100693.25;;;4.16;100.00
77639;BME280;66802;52.574;14.398;2023-11-19T09:31:15;100684.19;;;4.29;100.00
77639;BME280;66802;52.574;14.398;2023-11-19T09:33:42;100699.66;;;4.37;100.00
77639;BME280;66802;52.574;14.398;2023-11-19T09:36:08;100699.16;;;4.32;100.00
77639;BME280;66802;52.574;14.398;2023-11-19T09:38:34;100696.22;;;4.35;100.00
77639;BME280;66802;52.574;14.398;2023-11-19T09:41:06;100714.88;;;4.48;100.00
77639;BME280;66802;52.574;14.398;2023-11-19T09:43:35;100702.47;;;4.47;100.00
77639;BME280;66802;52.574;14.398;2023-11-19T09:46:06;100705.03;;;4.48;100.00
77639;BME280;66802;52.574;14.398;2023-11-19T09:48:36;100689.25;;;4.56;100.00
77639;BME280;66802;52.574;14.398;2023-11-19T09:51:06;100701.69;;;4.68;100.00
77639;BME280;66802;52.574;14.398;2023-11-19T09:53:33;100702.75;;;4.66;100.00
77639;BME280;66802;52.574;14.398;2023-11-19T09:56:01;100693.28;;;4.62;100.00
77639;BME280;66802;52.574;14.398;2023-11-19T09:58:29;100695.38;;;4.69;100.00
77639;BME280;66802;52.574;14.398;2023-11-19T10:00:57;100706.97;;;4.92;100.00
77639;BME280;66802;52.574;14.398;2023-11-19T10:03:26;100681.06;;;4.93;100.00
77639;BME280;66802;52.574;14.398;2023-11-19T10:05:54;100675.13;;;5.11;100.00
77639;BME280;66802;52.574;14.398;2023-11-19T10:08:20;100663.56;;;5.11;100.00
77639;BME280;66802;52.574;14.398;2023-11-19T10:10:47;100664.41;;;5.11;100.00
77639;BME280;66802;52.574;14.398;2023-11-19T10:13:13;100655.66;;;5.09;100.00
77639;BME280;66802;52.574;14.398;2023-11-19T10:15:49;100648.13;;;5.14;100.00
77639;BME280;66802;52.574;14.398;2023-11-19T10:18:15;100625.50;;;5.30;100.00
77639;BME280;66802;52.574;14.398;2023-11-19T10:25:53;100605.38;;;5.58;100.00
77639;BME280;66802;52.574;14.398;2023-11-19T10:28:19;100612.63;;;5.67;100.00
77639;BME280;66802;52.574;14.398;2023-11-19T10:30:48;100619.91;;;5.76;100.00
77639;BME280;66802;52.574;14.398;2023-11-19T10:33:14;100631.69;;;5.84;100.00
77639;BME280;66802;52.574;14.398;2023-11-19T10:35:53;100611.25;;;5.95;100.00
77639;BME280;66802;52.574;14.398;2023-11-19T10:38:23;100612.88;;;6.07;100.00
77639;BME280;66802;52.574;14.398;2023-11-19T10:40:52;100606.00;;;6.25;100.00
77639;BME280;66802;52.574;14.398;2023-11-19T10:43:19;100598.91;;;6.45;100.00
77639;BME280;66802;52.574;14.398;2023-11-19T10:45:44;100600.34;;;6.70;100.00
77639;BME280;66802;52.574;14.398;2023-11-19T10:48:11;100595.78;;;6.91;100.00
77639;BME280;66802;52.574;14.398;2023-11-19T10:50:39;100602.59;;;7.05;100.00
77639;BME280;66802;52.574;14.398;2023-11-19T10:53:07;100598.19;;;7.24;100.00
77639;BME280;66802;52.574;14.398;2023-11-19T10:55:37;100590.03;;;7.45;100.00
77639;BME280;66802;52.574;14.398;2023-11-19T10:58:10;100592.31;;;7.59;100.00
77639;BME280;66802;52.574;14.398;2023-11-19T11:03:21;100567.19;;;7.89;100.00
77639;BME280;66802;52.574;14.398;2023-11-19T11:05:52;100574.78;;;8.03;100.00
77639;BME280;66802;52.574;14.398;2023-11-19T11:08:19;100570.84;;;8.17;100.00
77639;BME280;66802;52.574;14.398;2023-11-19T11:10:52;100561.75;;;8.28;100.00
77639;BME280;66802;52.574;14.398;2023-11-19T11:13:18;100564.47;;;8.37;100.00
77639;BME280;66802;52.574;14.398;2023-11-19T11:15:46;100566.31;;;8.37;100.00
77639;BME280;66802;52.574;14.398;2023-11-19T11:18:13;100572.25;;;8.40;100.00
77639;BME280;66802;52.574;14.398;2023-11-19T11:20:39;100564.03;;;8.42;100.00
77639;BME280;66802;52.574;14.398;2023-11-19T11:26:29;100559.91;;;8.48;100.00
77639;BME280;66802;52.574;14.398;2023-11-19T11:29:04;100561.88;;;8.55;100.00
77639;BME280;66802;52.574;14.398;2023-11-19T11:40:02;100553.97;;;8.91;100.00
77639;BME280;66802;52.574;14.398;2023-11-19T11:42:38;100555.19;;;9.06;100.00
77639;BME280;66802;52.574;14.398;2023-11-19T11:50:14;100544.91;;;9.19;100.00
77639;BME280;66802;52.574;14.398;2023-11-19T11:53:13;100552.81;;;9.21;100.00
77639;BME280;66802;52.574;14.398;2023-11-19T11:58:13;100544.66;;;9.30;100.00
77639;BME280;66802;52.574;14.398;2023-11-19T12:00:41;100529.31;;;9.40;100.00
77639;BME280;66802;52.574;14.398;2023-11-19T12:03:08;100527.06;;;9.53;100.00
77639;BME280;66802;52.574;14.398;2023-11-19T12:05:45;100529.94;;;9.70;100.00
77639;BME280;66802;52.574;14.398;2023-11-19T12:08:12;100538.88;;;9.88;100.00
77639;BME280;66802;52.574;14.398;2023-11-19T12:10:46;100533.09;;;10.01;100.00
77639;BME280;66802;52.574;14.398;2023-11-19T12:13:14;100534.25;;;9.98;100.00
77639;BME280;66802;52.574;14.398;2023-11-19T12:18:28;100530.78;;;10.06;100.00
77639;BME280;66802;52.574;14.398;2023-11-19T12:20:55;100518.50;;;10.11;100.00
77639;BME280;66802;52.574;14.398;2023-11-19T12:23:22;100524.69;;;10.21;100.00
77639;BME280;66802;52.574;14.398;2023-11-19T12:25:47;100528.63;;;10.27;100.00
77639;BME280;66802;52.574;14.398;2023-11-19T12:28:16;100517.66;;;10.29;100.00
77639;BME280;66802;52.574;14.398;2023-11-19T12:31:08;100510.63;;;10.36;100.00
77639;BME280;66802;52.574;14.398;2023-11-19T12:33:36;100510.81;;;10.42;100.00
77639;BME280;66802;52.574;14.398;2023-11-19T12:36:03;100515.41;;;10.50;100.00
77639;BME280;66802;52.574;14.398;2023-11-19T12:38:31;100504.34;;;10.61;100.00
77639;BME280;66802;52.574;14.398;2023-11-19T12:41:08;100511.66;;;10.69;100.00
77639;BME280;66802;52.574;14.398;2023-11-19T12:43:37;100499.06;;;10.77;100.00
77639;BME280;66802;52.574;14.398;2023-11-19T12:46:23;100511.41;;;10.88;100.00
77639;BME280;66802;52.574;14.398;2023-11-19T12:48:49;100503.47;;;10.86;100.00
77639;BME280;66802;52.574;14.398;2023-11-19T12:51:15;100506.03;;;10.88;100.00
77639;BME280;66802;52.574;14.398;2023-11-19T12:53:51;100514.28;;;10.86;99.98
77639;BME280;66802;52.574;14.398;2023-11-19T12:56:23;100512.59;;;10.85;99.46
77639;BME280;66802;52.574;14.398;2023-11-19T12:58:49;100511.72;;;10.85;99.51
77639;BME280;66802;52.574;14.398;2023-11-19T13:01:19;100517.28;;;10.83;99.27
77639;BME280;66802;52.574;14.398;2023-11-19T13:03:46;100510.03;;;10.84;98.87
77639;BME280;66802;52.574;14.398;2023-11-19T13:06:14;100516.28;;;10.84;99.02
77639;BME280;66802;52.574;14.398;2023-11-19T13:08:49;100512.41;;;10.79;99.20
77639;BME280;66802;52.574;14.398;2023-11-19T13:11:30;100511.56;;;10.78;99.26
77639;BME280;66802;52.574;14.398;2023-11-19T13:14:06;100512.72;;;10.76;98.71
77639;BME280;66802;52.574;14.398;2023-11-19T13:16:36;100509.31;;;10.74;98.50
77639;BME280;66802;52.574;14.398;2023-11-19T13:19:02;100512.38;;;10.71;98.12
77639;BME280;66802;52.574;14.398;2023-11-19T13:21:28;100514.72;;;10.74;98.03
77639;BME280;66802;52.574;14.398;2023-11-19T13:23:55;100514.22;;;10.70;98.66
77639;BME280;66802;52.574;14.398;2023-11-19T13:26:22;100517.75;;;10.71;98.72
77639;BME280;66802;52.574;14.398;2023-11-19T13:28:48;100514.22;;;10.70;98.39
77639;BME280;66802;52.574;14.398;2023-11-19T13:31:14;100509.13;;;10.67;98.70
77639;BME280;66802;52.574;14.398;2023-11-19T13:33:40;100513.00;;;10.65;98.63
77639;BME280;66802;52.574;14.398;2023-11-19T13:36:06;100517.69;;;10.63;99.23
77639;BME280;66802;52.574;14.398;2023-11-19T13:38:36;100526.13;;;10.59;99.68
77639;BME280;66802;52.574;14.398;2023-11-19T13:41:02;100525.47;;;10.66;98.62
77639;BME280;66802;52.574;14.398;2023-11-19T13:43:30;100513.38;;;10.70;98.50
77639;BME280;66802;52.574;14.398;2023-11-19T13:45:56;100526.19;;;10.68;98.54
77639;BME280;66802;52.574;14.398;2023-11-19T13:48:24;100521.94;;;10.65;98.52
77639;BME280;66802;52.574;14.398;2023-11-19T13:50:49;100520.25;;;10.64;98.02
77639;BME280;66802;52.574;14.398;2023-11-19T13:53:15;100523.09;;;10.63;98.02
77639;BME280;66802;52.574;14.398;2023-11-19T13:55:42;100521.41;;;10.61;97.20
77639;BME280;66802;52.574;14.398;2023-11-19T13:58:07;100532.34;;;10.60;96.73
77639;BME280;66802;52.574;14.398;2023-11-19T14:00:33;100529.31;;;10.55;96.77
77639;BME280;66802;52.574;14.398;2023-11-19T14:02:59;100529.25;;;10.47;96.89
77639;BME280;66802;52.574;14.398;2023-11-19T14:05:24;100533.81;;;10.46;96.60
77639;BME280;66802;52.574;14.398;2023-11-19T14:07:50;100538.34;;;10.46;97.09
77639;BME280;66802;52.574;14.398;2023-11-19T14:10:17;100534.50;;;10.48;97.05
77639;BME280;66802;52.574;14.398;2023-11-19T14:12:43;100536.50;;;10.46;97.40
77639;BME280;66802;52.574;14.398;2023-11-19T14:15:10;100537.34;;;10.47;97.23
77639;BME280;66802;52.574;14.398;2023-11-19T14:17:38;100536.66;;;10.45;97.39
77639;BME280;66802;52.574;14.398;2023-11-19T14:20:05;100532.09;;;10.45;97.29
77639;BME280;66802;52.574;14.398;2023-11-19T14:22:41;100522.78;;;10.40;97.22
77639;BME280;66802;52.574;14.398;2023-11-19T14:25:09;100531.56;;;10.42;97.34
77639;BME280;66802;52.574;14.398;2023-11-19T14:27:39;100530.03;;;10.39;97.24
77639;BME280;66802;52.574;14.398;2023-11-19T14:30:06;100528.72;;;10.43;96.69
77639;BME280;66802;52.574;14.398;2023-11-19T14:32:32;100525.31;;;10.41;96.85
77639;BME280;66802;52.574;14.398;2023-11-19T14:34:58;100524.63;;;10.39;96.70
77639;BME280;66802;52.574;14.398;2023-11-19T14:37:23;100527.03;;;10.42;96.22
77639;BME280;66802;52.574;14.398;2023-11-19T14:39:49;100521.47;;;10.44;95.62
77639;BME280;66802;52.574;14.398;2023-11-19T14:42:16;100528.41;;;10.46;95.26
77639;BME280;66802;52.574;14.398;2023-11-19T14:44:42;100528.72;;;10.43;95.78
77639;BME280;66802;52.574;14.398;2023-11-19T14:47:08;100533.56;;;10.40;95.38
77639;BME280;66802;52.574;14.398;2023-11-19T14:49:35;100527.31;;;10.39;95.13
77639;BME280;66802;52.574;14.398;2023-11-19T14:52:03;100527.50;;;10.38;95.14
77639;BME280;66802;52.574;14.398;2023-11-19T14:54:28;100533.56;;;10.40;95.10
77639;BME280;66802;52.574;14.398;2023-11-19T14:56:54;100532.72;;;10.39;95.16
77639;BME280;66802;52.574;14.398;2023-11-19T14:59:19;100535.59;;;10.38;95.57
77639;BME280;66802;52.574;14.398;2023-11-19T15:01:45;100539.97;;;10.39;95.78
77639;BME280;66802;52.574;14.398;2023-11-19T15:04:11;100540.81;;;10.39;95.46
77639;BME280;66802;52.574;14.398;2023-11-19T15:06:37;100545.56;;;10.37;96.06
77639;BME280;66802;52.574;14.398;2023-11-19T15:09:03;100546.72;;;10.35;95.88
77639;BME280;66802;52.574;14.398;2023-11-19T15:11:29;100541.63;;;10.32;96.48
77639;BME280;66802;52.574;14.398;2023-11-19T15:13:55;100552.72;;;10.29;96.75
77639;BME280;66802;52.574;14.398;2023-11-19T15:16:21;100549.03;;;10.30;96.68
77639;BME280;66802;52.574;14.398;2023-11-19T15:18:51;100549.66;;;10.23;97.09
77639;BME280;66802;52.574;14.398;2023-11-19T15:21:17;100547.66;;;10.26;96.98
77639;BME280;66802;52.574;14.398;2023-11-19T15:23:43;100546.97;;;10.23;97.68
77639;BME280;66802;52.574;14.398;2023-11-19T15:26:08;100554.06;;;10.24;98.03
77639;BME280;66802;52.574;14.398;2023-11-19T15:28:38;100542.56;;;10.22;97.76
77639;BME280;66802;52.574;14.398;2023-11-19T15:31:03;100542.41;;;10.24;97.18
77639;BME280;66802;52.574;14.398;2023-11-19T15:33:29;100540.56;;;10.24;96.87
77639;BME280;66802;52.574;14.398;2023-11-19T15:35:58;100549.03;;;10.30;96.23
77639;BME280;66802;52.574;14.398;2023-11-19T15:38:25;100560.16;;;10.27;97.93
77639;BME280;66802;52.574;14.398;2023-11-19T15:40:51;100558.59;;;10.24;98.91
77639;BME280;66802;52.574;14.398;2023-11-19T15:43:16;100561.75;;;10.19;98.88
77639;BME280;66802;52.574;14.398;2023-11-19T15:45:42;100548.72;;;10.15;99.83
77639;BME280;66802;52.574;14.398;2023-11-19T15:48:08;100540.09;;;10.11;99.60
77639;BME280;66802;52.574;14.398;2023-11-19T15:50:33;100553.41;;;10.13;99.63
77639;BME280;66802;52.574;14.398;2023-11-19T15:52:59;100558.28;;;10.09;99.58
77639;BME280;66802;52.574;14.398;2023-11-19T15:55:24;100562.13;;;10.07;99.40
77639;BME280;66802;52.574;14.398;2023-11-19T15:57:50;100562.31;;;10.05;99.72
77639;BME280;66802;52.574;14.398;2023-11-19T16:00:16;100564.44;;;10.02;99.46
77639;BME280;66802;52.574;14.398;2023-11-19T16:02:42;100570.53;;;10.04;99.79
77639;BME280;66802;52.574;14.398;2023-11-19T16:05:08;100568.84;;;10.03;99.52
77639;BME280;66802;52.574;14.398;2023-11-19T16:07:37;100572.06;;;10.06;98.91
77639;BME280;66802;52.574;14.398;2023-11-19T16:10:02;100571.06;;;10.07;98.72
77639;BME280;66802;52.574;14.398;2023-11-19T16:12:30;100571.25;;;10.06;98.76